Time;durP1;ratioP1;P1;durP2;ratioP2;P2;SDS_P1;SDS_P2;PMS_P1;PMS_P2;Temp;Humidity;BMP_temperature;BMP_pressure;BME280_temperature;BME280_humidity;BME280_pressure;Samples;Min_cycle;Max_cycle;Signal;HPM_P1;HPM_P2
2023/10/23 00:00:21;;;;;;;17.10;6.25;;;;;;;14.37;93.36;99609.55;1761697;80;21082;-70
2023/10/23 00:02:50;;;;;;;15.53;6.12;;;;;;;14.37;93.20;99614.22;1761681;81;21019;-71
2023/10/23 00:05:18;;;;;;;14.58;5.60;;;;;;;14.35;93.01;99612.24;1761756;81;21027;-70
2023/10/23 00:07:48;;;;;;;14.90;6.05;;;;;;;14.34;92.88;99614.70;1761569;81;21435;-70
2023/10/23 00:10:17;;;;;;;14.75;5.92;;;;;;;14.31;92.98;99617.40;1761774;81;20991;-71
2023/10/23 00:12:47;;;;;;;17.02;5.75;;;;;;;14.28;93.02;99607.66;1761592;81;21058;-70
2023/10/23 00:15:16;;;;;;;13.30;5.92;;;;;;;14.27;93.12;99612.87;1741159;81;21015;-70
2023/10/23 00:17:44;;;;;;;15.55;5.60;;;;;;;14.25;92.90;99601.26;1761751;81;21062;-69
2023/10/23 00:20:13;;;;;;;11.08;4.80;;;;;;;14.21;92.83;99595.94;1761716;80;21075;-71
2023/10/23 00:22:42;;;;;;;10.53;4.60;;;;;;;14.17;92.94;99609.05;1761541;81;21015;-71
2023/10/23 00:25:10;;;;;;;13.10;4.40;;;;;;;14.14;92.85;99611.75;1761497;81;21038;-71
2023/10/23 00:27:39;;;;;;;12.33;4.67;;;;;;;14.13;92.65;99604.56;1761761;81;20999;-71
2023/10/23 00:30:09;;;;;;;14.00;4.42;;;;;;;14.14;92.52;99607.62;1761827;80;20979;-70
2023/10/23 00:32:38;;;;;;;8.48;4.33;;;;;;;14.16;92.38;99610.13;1761672;81;21039;-71
2023/10/23 00:35:07;;;;;;;12.03;4.00;;;;;;;14.18;92.20;99610.19;1761547;80;21068;-72
2023/10/23 00:37:36;;;;;;;11.55;4.60;;;;;;;14.18;92.01;99604.68;1761507;81;21101;-70
2023/10/23 00:40:06;;;;;;;10.85;4.28;;;;;;;14.18;91.85;99606.59;1780045;80;21047;-70
2023/10/23 00:42:35;;;;;;;10.70;3.95;;;;;;;14.14;91.63;99606.24;1782884;80;20995;-70
2023/10/23 00:45:05;;;;;;;9.33;4.00;;;;;;;14.15;91.63;99609.30;1782933;80;21019;-70
2023/10/23 00:47:34;;;;;;;10.28;4.12;;;;;;;14.16;91.54;99603.25;1782789;80;21023;-70
2023/10/23 00:50:04;;;;;;;10.20;3.87;;;;;;;14.16;91.46;99608.22;1782723;80;21003;-71
2023/10/23 00:52:32;;;;;;;7.67;3.42;;;;;;;14.17;91.39;99609.89;1782780;80;21512;-71
2023/10/23 00:55:01;;;;;;;7.85;4.03;;;;;;;14.15;91.21;99607.91;1783010;80;20991;-70
2023/10/23 00:57:30;;;;;;;8.50;3.50;;;;;;;14.14;91.30;99610.91;1783000;80;20979;-71
2023/10/23 00:59:59;;;;;;;7.97;3.30;;;;;;;14.13;91.36;99605.94;1782861;80;21476;-70
2023/10/23 01:02:28;;;;;;;9.15;3.72;;;;;;;14.12;91.38;99610.31;1782825;80;21034;-69
2023/10/23 01:05:00;;;;;;;7.28;3.22;;;;;;;14.13;91.23;99603.19;1782925;80;21022;-71
2023/10/23 01:07:29;;;;;;;8.58;3.47;;;;;;;14.12;91.31;99600.67;1782976;80;21007;-70
2023/10/23 01:09:58;;;;;;;6.25;3.30;;;;;;;14.11;91.44;99603.13;1782762;80;21055;-72
2023/10/23 01:12:27;;;;;;;6.65;3.05;;;;;;;14.10;91.47;99600.91;1782738;80;21015;-72
2023/10/23 01:14:56;;;;;;;6.72;2.85;;;;;;;14.10;91.59;99602.29;1782950;80;21066;-70
2023/10/23 01:17:25;;;;;;;7.20;3.20;;;;;;;14.07;91.51;99600.02;1782989;80;21002;-71
2023/10/23 01:19:54;;;;;;;7.92;3.35;;;;;;;14.06;91.61;99610.73;1782983;80;21018;-70
2023/10/23 01:22:23;;;;;;;11.22;3.20;;;;;;;14.06;91.62;99609.36;1782806;80;21050;-71
2023/10/23 01:24:51;;;;;;;8.88;3.27;;;;;;;14.06;91.55;99609.36;1783021;80;21054;-69
2023/10/23 01:27:21;;;;;;;7.05;3.00;;;;;;;14.06;91.50;99608.52;1782901;80;20994;-70
2023/10/23 01:29:50;;;;;;;7.95;3.35;;;;;;;14.07;91.54;99607.44;1782684;80;21054;-71
2023/10/23 01:32:18;;;;;;;8.83;3.50;;;;;;;14.05;91.67;99606.30;1782961;80;21098;-71
2023/10/23 01:34:47;;;;;;;9.43;3.40;;;;;;;14.04;91.84;99606.55;1782896;80;21046;-69
2023/10/23 01:37:16;;;;;;;8.45;3.05;;;;;;;14.01;91.91;99617.50;1782806;80;21023;-70
2023/10/23 01:39:44;;;;;;;6.25;2.87;;;;;;;14.00;92.01;99603.97;1769803;80;21528;-70
2023/10/23 01:42:13;;;;;;;7.12;2.58;;;;;;;13.99;91.99;99622.41;1761554;81;21027;-70
2023/10/23 01:44:41;;;;;;;7.70;2.67;;;;;;;13.98;92.05;99619.36;1761435;81;20968;-71
2023/10/23 01:47:11;;;;;;;9.95;2.90;;;;;;;13.99;92.16;99616.06;1761499;81;21062;-69
2023/10/23 01:49:40;;;;;;;4.65;3.15;;;;;;;13.98;92.17;99619.89;1761529;81;21007;-69
2023/10/23 01:52:08;;;;;;;6.90;4.40;;;;;;;13.97;92.10;99616.30;1761518;81;21074;-71
2023/10/23 01:54:36;;;;;;;9.58;3.90;;;;;;;14.00;92.16;99608.94;1761524;81;21042;-70
2023/10/23 01:57:05;;;;;;;10.43;4.78;;;;;;;14.02;92.13;99614.20;1761653;81;21011;-71
2023/10/23 01:59:33;;;;;;;11.10;5.33;;;;;;;14.03;92.21;99612.59;1761659;81;21042;-71
2023/10/23 02:02:03;;;;;;;11.30;6.87;;;;;;;14.05;92.18;99623.38;1761429;81;21034;-69
2023/10/23 02:04:34;;;;;;;8.43;5.47;;;;;;;14.08;92.15;99616.00;1761439;81;21070;-71
2023/10/23 02:07:03;;;;;;;6.53;3.98;;;;;;;14.09;92.18;99608.88;1761494;81;21051;-70
2023/10/23 02:09:32;;;;;;;8.18;4.65;;;;;;;14.13;92.17;99621.63;1761523;81;21038;-71
2023/10/23 02:12:02;;;;;;;10.15;6.05;;;;;;;14.16;92.12;99630.25;1761372;81;21035;-71
2023/10/23 02:14:30;;;;;;;8.83;5.62;;;;;;;14.19;92.05;99626.18;1740692;81;21031;-71
2023/10/23 02:16:59;;;;;;;9.35;5.47;;;;;;;14.21;92.00;99620.73;1761672;81;21039;-70
2023/10/23 02:19:30;;;;;;;7.33;5.22;;;;;;;14.22;91.95;99622.41;1761599;81;21003;-71
2023/10/23 02:21:59;;;;;;;7.37;3.60;;;;;;;14.25;92.03;99624.68;1761655;80;21110;-70
2023/10/23 02:24:28;;;;;;;11.03;5.97;;;;;;;14.25;92.03;99626.05;1761612;81;21046;-70
2023/10/23 02:27:01;;;;;;;9.85;5.53;;;;;;;14.26;92.10;99630.48;1761645;81;21043;-71
2023/10/23 02:29:30;;;;;;;6.72;4.35;;;;;;;14.25;92.12;99621.92;1761487;81;21434;-69
2023/10/23 02:31:58;;;;;;;8.28;4.28;;;;;;;14.25;92.24;99620.55;1761673;81;21043;-71
2023/10/23 02:34:27;;;;;;;8.10;4.25;;;;;;;14.26;92.38;99625.52;1761498;81;21043;-70
2023/10/23 02:36:56;;;;;;;7.33;4.53;;;;;;;14.25;92.39;99616.41;1761616;81;21007;-71
2023/10/23 02:39:24;;;;;;;8.38;4.67;;;;;;;14.25;92.44;99627.44;1765679;80;21026;-71
2023/10/23 02:41:53;;;;;;;9.18;4.05;;;;;;;14.26;92.43;99633.24;1782742;80;21576;-70
2023/10/23 02:44:22;;;;;;;10.05;3.98;;;;;;;14.25;92.42;99631.56;1782988;80;21054;-70
2023/10/23 02:46:50;;;;;;;8.95;6.62;;;;;;;14.24;92.49;99638.16;1782735;80;21046;-71
2023/10/23 02:49:20;;;;;;;9.63;5.45;;;;;;;14.24;92.44;99637.32;1782818;80;21019;-69
2023/10/23 02:51:49;;;;;;;6.30;3.47;;;;;;;14.23;92.56;99634.27;1779670;80;21042;-70
2023/10/23 02:54:17;;;;;;;5.10;3.42;;;;;;;14.22;92.52;99631.21;1783082;80;21062;-72
2023/10/23 02:56:46;;;;;;;4.50;2.80;;;;;;;14.21;92.59;99629.53;1782986;80;21006;-70
2023/10/23 02:59:16;;;;;;;5.97;3.02;;;;;;;14.19;92.26;99636.66;1782873;80;21006;-72
2023/10/23 03:01:45;;;;;;;4.22;2.08;;;;;;;14.19;91.98;99633.91;1782844;80;21018;-70
2023/10/23 03:04:14;;;;;;;3.85;2.10;;;;;;;14.19;91.45;99635.28;1782810;80;20995;-71
2023/10/23 03:06:43;;;;;;;3.75;1.47;;;;;;;14.19;91.48;99642.71;1760785;80;21015;-71
2023/10/23 03:09:12;;;;;;;3.65;1.50;;;;;;;14.17;91.34;99642.95;1782812;80;21051;-70
2023/10/23 03:11:42;;;;;;;4.47;2.95;;;;;;;14.16;91.25;99641.81;1782985;80;21074;-71
2023/10/23 03:14:11;;;;;;;3.85;2.30;;;;;;;14.14;91.28;99646.72;1782973;80;21011;-70
2023/10/23 03:16:40;;;;;;;9.33;4.55;;;;;;;14.11;91.45;99648.05;1782916;80;21058;-70
2023/10/23 03:19:08;;;;;;;12.60;6.60;;;;;;;14.09;91.61;99647.44;1782925;80;21047;-69
2023/10/23 03:21:37;;;;;;;6.60;3.83;;;;;;;14.04;91.76;99645.94;1782875;80;21062;-70
2023/10/23 03:24:07;;;;;;;12.35;4.20;;;;;;;14.01;92.11;99654.69;1782770;80;21493;-71
2023/10/23 03:26:36;;;;;;;5.45;4.40;;;;;;;14.00;92.46;99657.68;1782954;80;21366;-70
2023/10/23 03:29:04;;;;;;;8.38;5.47;;;;;;;13.97;92.60;99654.86;1782917;80;21018;-70
2023/10/23 03:31:37;;;;;;;9.90;5.65;;;;;;;13.93;92.80;99653.66;1782886;80;21038;-70
2023/10/23 03:34:05;;;;;;;8.43;6.67;;;;;;;13.91;92.91;99657.19;1782788;80;21043;-70
2023/10/23 03:36:34;;;;;;;14.55;5.40;;;;;;;13.88;93.12;99659.88;1782948;80;20999;-70
2023/10/23 03:39:03;;;;;;;7.15;4.70;;;;;;;13.86;93.22;99669.45;1782825;80;21031;-71
2023/10/23 03:41:33;;;;;;;6.20;4.40;;;;;;;13.83;93.37;99670.77;1768595;79;21038;-70
2023/10/23 03:44:03;;;;;;;9.93;5.53;;;;;;;13.78;93.65;99661.54;1740786;81;21031;-71
2023/10/23 03:46:32;;;;;;;9.63;6.28;;;;;;;13.75;94.00;99678.00;1761663;81;21062;-71
2023/10/23 03:49:01;;;;;;;11.97;8.15;;;;;;;13.71;94.26;99671.82;1761615;81;21007;-71
2023/10/23 03:51:29;;;;;;;11.12;7.12;;;;;;;13.68;94.44;99666.25;1761561;81;21545;-70
2023/10/23 03:53:59;;;;;;;9.30;5.50;;;;;;;13.63;94.74;99665.55;1761726;81;21011;-70
2023/10/23 03:56:27;;;;;;;9.90;6.45;;;;;;;13.60;95.03;99674.81;1761738;81;21070;-72
2023/10/23 03:58:56;;;;;;;8.45;6.12;;;;;;;13.56;95.25;99670.31;1761581;81;21439;-71
2023/10/23 04:01:25;;;;;;;13.08;7.22;;;;;;;13.54;95.46;99672.47;1761718;81;21078;-69
2023/10/23 04:03:54;;;;;;;11.28;5.70;;;;;;;13.51;95.66;99679.81;1761517;81;20999;-70
2023/10/23 04:06:24;;;;;;;9.35;6.83;;;;;;;13.49;95.91;99677.84;1761765;80;21046;-72
2023/10/23 04:08:53;;;;;;;9.95;6.58;;;;;;;13.46;96.12;99674.17;1761633;81;21037;-71
2023/10/23 04:11:22;;;;;;;7.20;4.75;;;;;;;13.45;96.32;99678.00;1761797;81;21623;-70
2023/10/23 04:13:50;;;;;;;9.18;5.85;;;;;;;13.42;96.57;99673.50;1761576;80;21014;-71
2023/10/23 04:16:18;;;;;;;9.50;6.05;;;;;;;13.39;96.82;99683.60;1740746;80;21027;-71
2023/10/23 04:18:47;;;;;;;10.48;7.60;;;;;;;13.34;97.09;99685.67;1761687;81;21070;-71
2023/10/23 04:21:17;;;;;;;9.98;7.22;;;;;;;13.33;97.30;99686.75;1761601;81;21071;-71
2023/10/23 04:23:46;;;;;;;9.50;6.00;;;;;;;13.30;97.22;99694.94;1761627;81;21002;-70
2023/10/23 04:26:14;;;;;;;8.23;3.42;;;;;;;13.27;97.22;99687.68;1761356;81;20994;-71
2023/10/23 04:28:43;;;;;;;10.80;5.50;;;;;;;13.25;97.10;99690.66;1761606;80;21030;-70
2023/10/23 04:31:12;;;;;;;6.40;4.80;;;;;;;13.23;97.02;99685.93;1761699;81;21011;-72
2023/10/23 04:33:42;;;;;;;11.20;7.75;;;;;;;13.22;96.89;99689.76;1761463;81;21046;-71
2023/10/23 04:36:12;;;;;;;5.97;4.67;;;;;;;13.19;96.75;99688.84;1761499;81;21054;-72
2023/10/23 04:38:41;;;;;;;5.92;4.15;;;;;;;13.19;96.50;99696.26;1761200;81;21435;-70
2023/10/23 04:41:09;;;;;;;5.05;3.58;;;;;;;13.17;96.03;99696.48;1761356;80;21051;-70
2023/10/23 04:43:38;;;;;;;6.62;4.10;;;;;;;13.19;95.75;99703.13;1761621;81;21010;-72
2023/10/23 04:46:06;;;;;;;6.40;4.10;;;;;;;13.17;95.51;99697.02;1761711;81;21070;-70
2023/10/23 04:48:36;;;;;;;6.67;3.98;;;;;;;13.16;95.32;99704.94;1761684;80;21038;-70
2023/10/23 04:51:05;;;;;;;8.63;3.02;;;;;;;13.16;94.85;99713.19;1761712;80;21019;-71
2023/10/23 04:53:33;;;;;;;2.30;1.60;;;;;;;13.16;94.19;99711.81;1761442;80;21446;-71
2023/10/23 04:56:05;;;;;;;4.87;1.70;;;;;;;13.18;93.06;99713.30;1761715;80;21082;-71
2023/10/23 04:58:33;;;;;;;2.15;1.40;;;;;;;13.24;92.33;99710.16;1761389;81;21066;-71
2023/10/23 05:01:02;;;;;;;2.72;1.27;;;;;;;13.27;91.45;99709.69;1761424;81;21540;-70
2023/10/23 05:03:31;;;;;;;3.52;1.60;;;;;;;13.30;90.96;99718.32;1761638;81;21019;-69
2023/10/23 05:06:00;;;;;;;3.25;1.30;;;;;;;13.35;90.76;99725.88;1740791;81;21038;-70
2023/10/23 05:08:29;;;;;;;3.10;1.82;;;;;;;13.37;90.16;99712.73;1761207;81;21054;-72
2023/10/23 05:11:08;;;;;;;1.98;1.20;;;;;;;13.40;89.88;99723.27;1761855;81;21050;-70
2023/10/23 05:13:38;;;;;;;2.27;1.17;;;;;;;13.41;89.51;99727.70;1761593;81;21061;-70
2023/10/23 05:16:07;;;;;;;2.65;1.17;;;;;;;13.43;88.82;99721.42;1754346;80;21019;-71
2023/10/23 05:18:36;;;;;;;3.85;2.50;;;;;;;13.45;88.56;99728.91;1761599;81;21042;-70
2023/10/23 05:21:12;;;;;;;7.70;4.53;;;;;;;13.47;88.50;99737.77;1761470;80;21027;-70
2023/10/23 05:23:41;;;;;;;5.62;3.77;;;;;;;13.48;88.39;99735.33;1761617;81;21050;-69
2023/10/23 05:26:11;;;;;;;5.12;3.55;;;;;;;13.49;88.18;99745.80;1761413;81;21035;-71
2023/10/23 05:28:41;;;;;;;2.55;2.00;;;;;;;13.50;87.98;99749.69;1761615;81;21006;-71
2023/10/23 05:31:12;;;;;;;3.80;2.47;;;;;;;13.50;87.86;99749.69;1761403;81;21540;-72
2023/10/23 05:33:42;;;;;;;4.85;2.40;;;;;;;13.51;87.64;99757.41;1754450;81;20999;-72
2023/10/23 05:36:11;;;;;;;5.67;3.00;;;;;;;13.50;87.35;99748.31;1761561;81;20999;-71
2023/10/23 05:38:39;;;;;;;5.12;1.77;;;;;;;13.50;87.34;99749.69;1740524;81;21050;-70
2023/10/23 05:41:09;;;;;;;3.77;2.65;;;;;;;13.50;87.44;99749.69;1761514;80;21523;-70
2023/10/23 05:43:39;;;;;;;4.60;2.67;;;;;;;13.51;87.70;99749.16;1761447;81;20983;-74
2023/10/23 05:46:07;;;;;;;5.70;3.55;;;;;;;13.51;87.89;99743.66;1761642;81;21054;-72
2023/10/23 05:48:36;;;;;;;3.92;2.50;;;;;;;13.52;88.00;99749.45;1761589;81;21054;-71
2023/10/23 05:51:05;;;;;;;4.92;2.47;;;;;;;13.51;88.04;99751.38;1740958;81;21145;-70
2023/10/23 05:53:34;;;;;;;5.33;2.98;;;;;;;13.51;87.78;99760.16;1761635;81;21048;-70
2023/10/23 05:56:04;;;;;;;6.00;2.83;;;;;;;13.52;87.76;99754.43;1754423;81;21051;-71
2023/10/23 05:58:33;;;;;;;3.67;2.62;;;;;;;13.53;87.68;99761.61;1761543;80;21104;-71
2023/10/23 06:01:11;;;;;;;3.60;2.42;;;;;;;13.54;87.18;99752.82;1761577;81;21003;-73
2023/10/23 06:03:40;;;;;;;4.90;1.75;;;;;;;13.56;87.03;99757.02;1761799;81;21038;-71
2023/10/23 06:06:08;;;;;;;3.35;2.58;;;;;;;13.58;86.89;99753.50;1761590;80;21014;-72
2023/10/23 06:08:37;;;;;;;4.30;2.37;;;;;;;13.60;86.72;99751.89;1761425;81;21026;-70
2023/10/23 06:11:10;;;;;;;5.05;2.80;;;;;;;13.59;86.66;99759.84;1761496;81;21036;-71
2023/10/23 06:13:38;;;;;;;6.40;3.30;;;;;;;13.60;86.74;99762.89;1761523;81;21065;-70
2023/10/23 06:16:07;;;;;;;4.85;2.95;;;;;;;13.61;86.88;99765.41;1761576;81;21022;-71
2023/10/23 06:18:37;;;;;;;4.87;2.42;;;;;;;13.61;87.16;99758.53;1761547;81;21023;-72
2023/10/23 06:21:07;;;;;;;4.58;3.27;;;;;;;13.62;87.32;99768.47;1761537;81;21042;-70
2023/10/23 06:23:39;;;;;;;5.12;2.83;;;;;;;13.64;87.44;99769.62;1761732;81;21049;-71
2023/10/23 06:26:08;;;;;;;3.80;2.62;;;;;;;13.68;87.29;99774.16;1761578;81;21047;-71
2023/10/23 06:28:37;;;;;;;4.08;2.62;;;;;;;13.69;87.17;99774.45;1761666;81;20999;-71
2023/10/23 06:31:10;;;;;;;10.00;3.17;;;;;;;13.70;87.18;99776.13;1761516;80;21521;-71
2023/10/23 06:33:39;;;;;;;3.30;1.92;;;;;;;13.71;87.24;99781.95;1740792;81;21074;-72
2023/10/23 06:36:09;;;;;;;5.15;2.75;;;;;;;13.72;86.88;99776.73;1761743;81;21122;-70
2023/10/23 06:38:37;;;;;;;2.33;1.70;;;;;;;13.75;86.86;99776.27;1761710;80;21078;-71
2023/10/23 06:41:07;;;;;;;4.37;2.10;;;;;;;13.78;86.81;99784.91;1763476;80;21023;-72
2023/10/23 06:43:37;;;;;;;6.08;3.25;;;;;;;13.81;86.70;99785.81;1782967;80;21070;-71
2023/10/23 06:46:06;;;;;;;6.03;2.40;;;;;;;13.84;86.51;99785.88;1783151;80;21007;-71
2023/10/23 06:48:34;;;;;;;4.62;2.55;;;;;;;13.88;86.34;99792.60;1782755;80;21032;-71
2023/10/23 06:51:03;;;;;;;2.52;1.90;;;;;;;13.91;85.78;99784.71;1782977;80;21038;-70
2023/10/23 06:53:32;;;;;;;3.87;1.95;;;;;;;13.95;85.67;99776.28;1779415;80;21506;-71
2023/10/23 06:56:02;;;;;;;3.52;2.20;;;;;;;14.02;85.58;99778.94;1782928;80;21066;-71
2023/10/23 06:58:31;;;;;;;6.50;1.60;;;;;;;14.06;85.05;99780.69;1782715;80;21572;-71
2023/10/23 07:01:09;;;;;;;3.05;2.10;;;;;;;14.13;84.98;99793.81;1782704;80;21034;-70
2023/10/23 07:03:40;;;;;;;3.22;2.33;;;;;;;14.18;84.53;99793.95;1782864;80;21106;-72
2023/10/23 07:06:09;;;;;;;2.77;1.47;;;;;;;14.26;84.44;99790.84;1782856;80;21014;-71
2023/10/23 07:08:39;;;;;;;4.28;2.50;;;;;;;14.31;83.76;99795.14;1782979;80;21071;-71
2023/10/23 07:11:15;;;;;;;6.33;2.72;;;;;;;14.36;83.63;99799.95;1779463;80;21027;-72
2023/10/23 07:13:44;;;;;;;4.03;2.20;;;;;;;14.40;83.10;99803.36;1782979;80;21473;-70
2023/10/23 07:16:13;;;;;;;4.47;2.37;;;;;;;14.46;83.17;99809.87;1782942;80;21411;-70
2023/10/23 07:18:41;;;;;;;4.12;2.20;;;;;;;14.49;81.91;99797.00;1782804;80;21524;-71
2023/10/23 07:21:10;;;;;;;3.85;2.50;;;;;;;14.54;81.59;99805.39;1782936;80;21043;-70
2023/10/23 07:23:41;;;;;;;4.25;1.60;;;;;;;14.55;81.24;99805.69;1782725;80;21027;-70
2023/10/23 07:26:14;;;;;;;4.62;1.70;;;;;;;14.55;81.01;99818.09;1782942;80;21007;-71
2023/10/23 07:28:44;;;;;;;2.47;1.62;;;;;;;14.55;80.77;99812.58;1782908;80;21039;-70
2023/10/23 07:31:14;;;;;;;3.92;1.67;;;;;;;14.57;80.42;99804.38;1782805;80;21019;-69
2023/10/23 07:33:43;;;;;;;3.10;1.77;;;;;;;14.59;80.52;99802.22;1782730;80;21074;-70
2023/10/23 07:36:12;;;;;;;5.53;1.95;;;;;;;14.79;80.21;99796.34;1782764;80;21470;-71
2023/10/23 07:38:43;;;;;;;3.08;1.70;;;;;;;15.13;79.70;99804.88;1782843;80;21026;-70
2023/10/23 07:41:12;;;;;;;4.95;1.80;;;;;;;15.56;77.52;99807.17;1782681;80;21018;-71
2023/10/23 07:43:43;;;;;;;9.75;1.75;;;;;;;15.99;76.90;99802.56;1761724;81;21634;-70
2023/10/23 07:46:12;;;;;;;2.45;1.50;;;;;;;16.40;75.33;99809.69;1761485;81;21022;-72
2023/10/23 07:48:42;;;;;;;3.92;2.10;;;;;;;16.75;72.69;99814.16;1760971;81;21066;-72
2023/10/23 07:51:11;;;;;;;5.05;1.92;;;;;;;16.87;70.97;99801.61;1761636;81;21022;-70
2023/10/23 07:53:40;;;;;;;3.90;1.52;;;;;;;16.81;70.24;99818.69;1761505;81;21491;-72
2023/10/23 07:56:09;;;;;;;2.33;1.60;;;;;;;16.69;70.59;99816.00;1761835;81;21055;-70
2023/10/23 07:58:39;;;;;;;3.80;1.80;;;;;;;16.52;69.78;99822.05;1761555;81;21093;-72
2023/10/23 08:01:11;;;;;;;2.70;1.57;;;;;;;16.32;70.44;99824.47;1761525;80;21062;-73
2023/10/23 08:03:39;;;;;;;5.15;1.35;;;;;;;16.10;70.70;99833.44;1761755;81;21075;-71
2023/10/23 08:06:09;;;;;;;2.95;1.70;;;;;;;15.93;70.93;99825.66;1761573;81;21030;-73
2023/10/23 08:08:40;;;;;;;3.50;1.67;;;;;;;15.81;71.84;99835.91;1737320;80;21474;-73
2023/10/23 08:11:11;;;;;;;4.90;1.80;;;;;;;15.73;71.93;99839.06;1669056;85;21020;-72
2023/10/23 08:13:39;;;;;;;4.30;1.80;;;;;;;15.72;71.96;99824.41;1721028;82;21029;-70
2023/10/23 08:16:07;;;;;;;5.17;2.25;;;;;;;15.74;71.92;99822.78;1738362;82;21051;-70
2023/10/23 08:18:36;;;;;;;4.60;2.00;;;;;;;15.81;71.32;99826.24;1735330;82;21063;-70
2023/10/23 08:21:14;;;;;;;4.30;1.80;;;;;;;15.92;71.35;99825.90;1699885;82;21086;-71
2023/10/23 08:23:52;;;;;;;2.70;1.57;;;;;;;15.99;70.88;99823.28;1671179;83;21027;-69
2023/10/23 08:26:21;;;;;;;2.85;1.75;;;;;;;15.98;70.65;99813.31;1691889;85;21090;-69
2023/10/23 08:28:50;;;;;;;5.72;2.17;;;;;;;15.98;70.46;99824.91;1705835;82;21043;-72
2023/10/23 08:31:20;;;;;;;7.10;1.92;;;;;;;15.94;70.23;99829.25;1720721;83;21019;-70
2023/10/23 08:33:50;;;;;;;2.37;1.67;;;;;;;15.89;70.01;99824.47;1718077;83;21035;-69
2023/10/23 08:36:19;;;;;;;3.30;1.85;;;;;;;15.85;69.64;99808.93;1719045;83;21034;-70
2023/10/23 08:38:47;;;;;;;3.05;1.67;;;;;;;15.85;69.44;99823.28;1720754;82;21072;-71
2023/10/23 08:41:16;;;;;;;2.50;1.70;;;;;;;15.89;69.62;99825.02;1737198;82;21089;-69
2023/10/23 08:43:45;;;;;;;3.27;1.60;;;;;;;15.97;69.65;99821.31;1689397;83;21034;-69
2023/10/23 08:46:14;;;;;;;2.98;2.27;;;;;;;16.08;68.96;99827.87;1683448;85;21071;-70
2023/10/23 08:48:43;;;;;;;4.60;1.60;;;;;;;16.16;68.57;99822.77;1688907;85;21041;-69
2023/10/23 08:51:11;;;;;;;3.37;2.12;;;;;;;16.22;68.80;99831.16;1688959;85;21030;-69
2023/10/23 08:53:46;;;;;;;4.80;1.80;;;;;;;16.26;67.64;99813.86;1680560;83;21067;-71
2023/10/23 08:56:16;;;;;;;13.05;4.28;;;;;;;16.30;67.84;99815.58;1703164;84;21054;-69
2023/10/23 08:58:45;;;;;;;3.22;2.20;;;;;;;16.35;67.87;99839.17;1705090;84;21043;-70
2023/10/23 09:01:13;;;;;;;3.72;1.70;;;;;;;16.40;66.49;99829.58;1704843;84;21121;-69
2023/10/23 09:03:44;;;;;;;4.83;3.15;;;;;;;16.42;66.31;99826.02;1704766;84;21528;-72
2023/10/23 09:06:22;;;;;;;4.50;2.08;;;;;;;16.42;66.01;99834.32;1701434;84;21056;-69
2023/10/23 09:08:48;;;;;;;3.83;1.92;;;;;;;16.42;65.83;99826.86;1704853;84;21024;-70
2023/10/23 09:11:18;;;;;;;4.85;1.62;;;;;;;16.41;65.30;99840.94;1705061;84;21067;-70
2023/10/23 09:13:46;;;;;;;2.60;1.60;;;;;;;16.40;64.87;99831.80;1704999;84;21103;-71
2023/10/23 09:16:16;;;;;;;5.25;1.90;;;;;;;16.38;64.65;99833.98;1728253;82;21017;-71
2023/10/23 09:18:53;;;;;;;5.28;1.85;;;;;;;16.36;64.98;99840.30;1745239;82;21067;-72
2023/10/23 09:21:18;;;;;;;2.75;1.67;;;;;;;16.35;65.17;99832.27;1744703;82;21501;-72
2023/10/23 09:23:58;;;;;;;3.98;1.85;;;;;;;16.36;65.37;99827.86;1722187;82;21540;-71
2023/10/23 09:26:27;;;;;;;2.83;1.77;;;;;;;16.38;65.25;99828.45;1745165;82;21031;-72
2023/10/23 09:28:57;;;;;;;3.30;2.17;;;;;;;16.39;65.24;99832.05;1728762;82;21027;-71
2023/10/23 09:31:26;;;;;;;4.28;1.62;;;;;;;16.40;65.15;99854.47;1720244;82;21032;-73
2023/10/23 09:33:54;;;;;;;4.53;1.72;;;;;;;16.39;64.76;99856.94;1707927;83;21106;-70
2023/10/23 09:36:23;;;;;;;3.17;1.70;;;;;;;16.38;64.57;99840.89;1719969;82;21105;-71
2023/10/23 09:38:59;;;;;;;3.95;1.77;;;;;;;16.37;64.37;99838.38;1684532;83;21066;-71
2023/10/23 09:41:29;;;;;;;3.02;2.10;;;;;;;16.39;64.85;99838.97;1719950;83;21577;-71
2023/10/23 09:43:57;;;;;;;3.42;1.80;;;;;;;16.39;64.68;99856.94;1742815;82;21094;-72
2023/10/23 09:46:26;;;;;;;6.15;2.27;;;;;;;16.42;64.59;99836.55;1785683;80;21019;-72
2023/10/23 09:49:03;;;;;;;6.97;2.25;;;;;;;16.49;64.85;99847.44;1785786;80;21410;-79
2023/10/23 09:51:39;;;;;;;3.35;1.95;;;;;;;16.56;64.43;99834.29;1785909;80;20994;-74
2023/10/23 09:54:23;;;;;;;3.40;1.92;;;;;;;16.63;64.24;99841.87;1757464;80;21463;-73
2023/10/23 09:56:51;;;;;;;5.22;2.15;;;;;;;16.70;64.21;99828.75;1785820;80;21047;-75
2023/10/23 09:59:29;;;;;;;2.42;1.75;;;;;;;16.74;63.13;99834.61;1785720;80;21031;-73
2023/10/23 10:02:00;;;;;;;2.42;1.82;;;;;;;16.73;62.74;99860.06;1785583;80;21085;-73
2023/10/23 10:05:04;;;;;;;4.70;2.25;;;;;;;16.70;62.62;99852.27;1785506;80;21018;-74
2023/10/23 10:08:03;;;;;;;5.30;2.15;;;;;;;16.68;62.90;99854.44;1785760;80;21026;-73
2023/10/23 10:10:33;;;;;;;4.30;2.02;;;;;;;16.64;62.86;99861.53;1785719;80;20979;-74
2023/10/23 10:13:02;;;;;;;5.85;1.82;;;;;;;16.60;62.71;99863.13;1755753;80;21450;-73
2023/10/23 10:15:31;;;;;;;6.60;1.90;;;;;;;16.58;62.33;99854.78;1776295;80;21524;-73
2023/10/23 10:18:00;;;;;;;8.10;2.00;;;;;;;16.53;62.22;99856.08;1752490;82;21038;-73
2023/10/23 10:20:30;;;;;;;7.62;2.08;;;;;;;16.52;62.42;99856.63;1752582;82;21022;-75
2023/10/23 10:23:11;;;;;;;5.60;2.22;;;;;;;16.52;62.35;99849.70;1752663;82;21031;-74
2023/10/23 10:25:40;;;;;;;7.05;2.70;;;;;;;16.52;62.51;99838.64;1752833;82;21058;-74
2023/10/23 10:28:08;;;;;;;3.65;2.10;;;;;;;16.53;61.93;99847.78;1761894;80;21002;-72
2023/10/23 10:30:49;;;;;;;6.45;2.42;;;;;;;16.53;62.02;99845.02;1785714;80;21019;-72
2023/10/23 10:33:31;;;;;;;3.90;2.42;;;;;;;16.54;62.17;99848.91;1785513;80;21034;-73
2023/10/23 10:36:04;;;;;;;4.35;2.30;;;;;;;16.57;62.08;99847.57;1784528;80;21046;-72
2023/10/23 10:38:35;;;;;;;4.05;2.12;;;;;;;16.61;61.86;99859.81;1785398;80;21087;-72
2023/10/23 10:41:18;;;;;;;3.77;2.12;;;;;;;16.62;61.93;99855.41;1785566;80;21015;-73
2023/10/23 10:43:53;;;;;;;7.72;2.55;;;;;;;16.66;61.67;99852.47;1785414;80;21369;-74
2023/10/23 10:46:24;;;;;;;4.33;2.10;;;;;;;16.69;61.42;99864.96;1785945;80;21481;-72
2023/10/23 10:48:54;;;;;;;3.47;2.20;;;;;;;16.72;60.41;99861.70;1785183;80;21073;-72
2023/10/23 10:51:25;;;;;;;3.35;2.02;;;;;;;16.71;60.27;99855.32;1785615;80;21463;-73
2023/10/23 10:54:06;;;;;;;5.30;2.00;;;;;;;16.69;60.34;99859.43;1785533;80;21014;-71
2023/10/23 10:56:35;;;;;;;3.00;1.90;;;;;;;16.66;60.38;99863.53;1785605;80;21069;-71
2023/10/23 10:59:04;;;;;;;4.28;2.10;;;;;;;16.62;61.06;99864.25;1785957;80;21038;-72
2023/10/23 11:01:33;;;;;;;4.67;1.90;;;;;;;16.57;60.71;99871.08;1785768;80;21042;-72
2023/10/23 11:04:02;;;;;;;5.20;2.00;;;;;;;16.54;60.71;99866.89;1785739;80;21461;-71
2023/10/23 11:06:32;;;;;;;5.80;2.30;;;;;;;16.53;60.73;99865.76;1785425;80;21030;-73
2023/10/23 11:09:00;;;;;;;3.95;2.20;;;;;;;16.51;60.77;99877.07;1785592;80;20991;-71
2023/10/23 11:11:30;;;;;;;3.33;1.85;;;;;;;16.49;60.60;99877.86;1755908;80;21023;-70
2023/10/23 11:13:59;;;;;;;5.20;2.08;;;;;;;16.47;60.75;99878.66;1785704;80;21074;-71
2023/10/23 11:16:30;;;;;;;3.85;2.60;;;;;;;16.46;60.75;99878.36;1760247;80;21051;-72
2023/10/23 11:18:59;;;;;;;4.10;2.35;;;;;;;16.45;60.83;99884.98;1751534;82;21047;-72
2023/10/23 11:21:28;;;;;;;4.08;2.15;;;;;;;16.46;60.88;99894.41;1752667;82;21539;-72
2023/10/23 11:23:57;;;;;;;2.45;1.80;;;;;;;16.48;60.75;99888.63;1752808;82;21624;-72
2023/10/23 11:26:29;;;;;;;2.75;1.90;;;;;;;16.48;60.61;99888.63;1752870;82;21053;-72
2023/10/23 11:28:57;;;;;;;4.28;2.45;;;;;;;16.48;60.84;99898.31;1773659;80;21046;-73
2023/10/23 11:31:26;;;;;;;2.77;1.85;;;;;;;16.46;60.08;99888.04;1785683;80;20999;-72
2023/10/23 11:33:55;;;;;;;4.10;2.00;;;;;;;16.44;60.34;99890.21;1785702;80;21059;-73
2023/10/23 11:36:32;;;;;;;6.70;2.75;;;;;;;16.44;60.18;99898.51;1785922;80;21066;-73
2023/10/23 11:39:03;;;;;;;3.92;2.02;;;;;;;16.45;60.29;99891.89;1785893;80;21027;-73
2023/10/23 11:41:33;;;;;;;2.87;1.82;;;;;;;16.46;60.46;99884.73;1785744;80;21058;-74
2023/10/23 11:44:04;;;;;;;4.87;1.80;;;;;;;16.48;60.43;99887.25;1741155;81;21057;-74